Time;durP1;ratioP1;P1;durP2;ratioP2;P2;SDS_P1;SDS_P2;PMS_P1;PMS_P2;Temp;Humidity;BMP_temperature;BMP_pressure;BME280_temperature;BME280_humidity;BME280_pressure;Samples;Min_cycle;Max_cycle;Signal;HPM_P1;HPM_P2
2022/12/19 00:02:16;;;;;;;63.28;27.52;;;;;;;-2.09;83.56;99664.94;10281821;28;20141;-55
2022/12/19 00:07:15;;;;;;;55.05;24.38;;;;;;;-2.08;83.43;99655.63;10286779;28;20041;-56
2022/12/19 00:12:14;;;;;;;46.95;22.65;;;;;;;-2.04;83.17;99664.41;10286509;28;20033;-55
2022/12/19 00:17:13;;;;;;;63.55;26.75;;;;;;;-2.07;84.02;99665.06;10283353;28;20036;-55
2022/12/19 00:22:12;;;;;;;61.42;31.20;;;;;;;-2.12;84.83;99682.50;10286416;28;20034;-55
2022/12/19 00:27:11;;;;;;;53.03;25.42;;;;;;;-2.09;84.56;99677.66;10280034;28;20113;-55
2022/12/19 00:32:10;;;;;;;57.78;25.27;;;;;;;-2.07;84.48;99680.31;10287847;28;20042;-55
2022/12/19 00:37:10;;;;;;;53.65;24.42;;;;;;;-2.04;84.21;99684.78;10276692;28;20437;-56
2022/12/19 00:42:09;;;;;;;50.42;23.40;;;;;;;-2.03;84.95;99691.63;10292145;28;20072;-55
2022/12/19 00:47:08;;;;;;;60.42;27.83;;;;;;;-2.01;84.90;99692.63;10291148;28;20038;-55
2022/12/19 00:52:07;;;;;;;62.15;29.45;;;;;;;-1.91;85.31;99697.69;10289610;28;20057;-55
2022/12/19 00:57:06;;;;;;;57.97;27.58;;;;;;;-1.98;85.09;99665.78;10289928;28;20029;-55
2022/12/19 01:02:05;;;;;;;62.10;28.20;;;;;;;-1.68;85.54;99695.31;10288512;28;20613;-55
2022/12/19 01:07:06;;;;;;;60.80;29.40;;;;;;;-1.78;85.20;99674.97;10290178;28;20468;-55
2022/12/19 01:17:23;;;;;;;56.83;27.38;;;;;;;-1.43;85.33;99704.84;10289108;28;20061;-55
2022/12/19 01:22:22;;;;;;;58.90;27.98;;;;;;;-1.30;85.33;99714.34;10283487;28;20022;-55
2022/12/19 01:27:21;;;;;;;54.10;27.17;;;;;;;-1.24;85.12;99692.75;10267504;28;20836;-55
2022/12/19 01:32:20;;;;;;;52.30;25.00;;;;;;;-1.26;85.40;99719.78;10289338;28;20425;-56
2022/12/19 01:37:20;;;;;;;50.15;26.10;;;;;;;-1.09;84.43;99699.81;10289593;28;20061;-55
2022/12/19 01:42:21;;;;;;;46.67;24.15;;;;;;;-0.97;84.21;99692.19;10289937;28;20118;-55
2022/12/19 01:47:20;;;;;;;54.58;26.13;;;;;;;-1.04;84.22;99707.00;10289461;28;20062;-55
2022/12/19 01:52:20;;;;;;;51.88;26.20;;;;;;;-0.90;84.46;99691.88;10289055;28;20030;-55
2022/12/19 01:57:19;;;;;;;49.92;25.63;;;;;;;-0.98;84.15;99686.19;10287950;28;20058;-55
2022/12/19 02:02:24;;;;;;;45.60;23.67;;;;;;;-0.94;84.40;99693.28;10288494;28;20061;-56
2022/12/19 02:07:25;;;;;;;46.28;23.75;;;;;;;-0.95;84.59;99685.53;10287505;28;20084;-56
2022/12/19 02:12:27;;;;;;;48.33;24.30;;;;;;;-0.99;84.91;99686.97;10285560;28;20061;-55
2022/12/19 02:17:45;;;;;;;52.22;25.30;;;;;;;-1.04;84.81;99685.75;10288445;28;20058;-56
2022/12/19 02:23:05;;;;;;;45.30;22.98;;;;;;;-0.98;84.55;99698.03;10268081;28;20076;-55
2022/12/19 02:28:32;;;;;;;50.35;25.75;;;;;;;-0.93;84.81;99684.91;10288701;28;20054;-56
2022/12/19 02:33:31;;;;;;;57.75;27.73;;;;;;;-0.90;84.74;99689.34;10283677;28;20081;-55
2022/12/19 02:38:46;;;;;;;50.35;25.60;;;;;;;-0.94;85.04;99687.31;10288375;28;20442;-55
2022/12/19 02:43:49;;;;;;;46.85;23.63;;;;;;;-0.95;85.00;99691.53;10286150;28;20066;-55
2022/12/19 02:48:49;;;;;;;48.72;25.15;;;;;;;-1.12;85.10;99684.25;10288129;28;20265;-55
2022/12/19 02:53:49;;;;;;;50.08;26.02;;;;;;;-1.12;85.40;99681.72;10287065;28;20076;-55
2022/12/19 02:59:01;;;;;;;52.35;25.85;;;;;;;-1.09;85.76;99677.75;10287546;28;20065;-55
2022/12/19 03:04:34;;;;;;;48.25;25.58;;;;;;;-0.94;86.16;99677.13;10284533;28;20053;-56
2022/12/19 03:09:51;;;;;;;52.58;26.17;;;;;;;-0.87;85.43;99675.16;10286670;28;20073;-55
2022/12/19 03:14:51;;;;;;;59.30;32.05;;;;;;;-0.83;86.17;99666.09;10257193;28;20081;-56
2022/12/19 03:19:50;;;;;;;56.85;29.00;;;;;;;-0.68;85.59;99664.66;10282838;28;20141;-55
2022/12/19 03:24:49;;;;;;;62.45;32.25;;;;;;;-0.62;85.50;99661.69;10293870;28;20136;-55
2022/12/19 03:29:59;;;;;;;61.58;31.27;;;;;;;-0.73;86.01;99677.84;10294594;28;20033;-55
2022/12/19 03:35:04;;;;;;;52.65;26.83;;;;;;;-0.95;85.98;99689.00;10279206;28;20062;-55
2022/12/19 03:40:09;;;;;;;44.83;21.88;;;;;;;-1.21;86.81;99692.13;10287005;28;20092;-56
2022/12/19 03:45:10;;;;;;;43.58;21.38;;;;;;;-1.41;87.23;99689.69;10294035;28;20498;-55
2022/12/19 03:50:10;;;;;;;46.75;22.83;;;;;;;-1.58;87.11;99696.03;10292797;28;20060;-55
2022/12/19 03:55:22;;;;;;;47.22;21.10;;;;;;;-1.35;87.11;99719.06;10293382;28;20053;-55
2022/12/19 04:00:23;;;;;;;46.55;22.60;;;;;;;-1.25;87.09;99721.53;10292067;28;20064;-55
2022/12/19 04:05:25;;;;;;;46.13;21.85;;;;;;;-1.16;86.10;99740.88;10294027;28;20475;-56
2022/12/19 04:10:26;;;;;;;44.47;22.15;;;;;;;-1.15;86.20;99737.53;10281984;28;20070;-56
2022/12/19 04:15:35;;;;;;;45.05;21.25;;;;;;;-1.06;86.55;99733.16;10286093;28;20054;-55
2022/12/19 04:20:39;;;;;;;52.17;25.90;;;;;;;-1.04;87.61;99739.25;10291416;28;20076;-55
2022/12/19 04:25:48;;;;;;;45.33;21.67;;;;;;;-0.89;87.48;99735.31;10291137;28;20072;-56
2022/12/19 04:30:48;;;;;;;44.97;22.45;;;;;;;-0.72;87.11;99740.78;10289728;28;20072;-56
2022/12/19 04:35:47;;;;;;;46.67;21.60;;;;;;;-0.56;86.97;99737.72;10290425;28;20065;-55
2022/12/19 04:40:46;;;;;;;42.08;21.55;;;;;;;-0.48;86.99;99732.44;10292107;28;20460;-56
2022/12/19 04:45:45;;;;;;;48.75;24.15;;;;;;;-0.50;86.31;99728.88;10289585;28;20867;-56
2022/12/19 04:50:44;;;;;;;55.13;27.92;;;;;;;-0.52;85.82;99738.06;10291131;28;20036;-56
2022/12/19 04:55:43;;;;;;;63.97;34.08;;;;;;;-0.74;86.93;99738.16;10291161;28;20045;-56
2022/12/19 05:00:42;;;;;;;65.80;34.47;;;;;;;-0.73;86.90;99761.97;10289183;28;20061;-56
2022/12/19 05:05:42;;;;;;;62.90;33.47;;;;;;;-0.65;86.84;99749.03;10290258;28;20128;-56
2022/12/19 05:10:41;;;;;;;62.95;31.85;;;;;;;-0.57;86.80;99752.16;10270041;28;20081;-56
2022/12/19 05:15:40;;;;;;;56.10;29.70;;;;;;;-0.45;86.67;99753.06;10281569;28;20029;-56
2022/12/19 05:20:39;;;;;;;58.40;29.50;;;;;;;-0.34;86.63;99745.34;10290723;28;20113;-56
2022/12/19 05:25:38;;;;;;;60.67;29.77;;;;;;;-0.32;86.49;99754.88;10264482;28;20491;-56
2022/12/19 05:30:37;;;;;;;63.42;32.25;;;;;;;-0.21;86.07;99746.31;10281485;28;20572;-56
2022/12/19 05:35:36;;;;;;;66.65;34.88;;;;;;;-0.13;85.72;99754.56;10289339;28;20129;-56
2022/12/19 05:40:35;;;;;;;67.15;35.13;;;;;;;-0.05;85.76;99756.00;10290068;28;20124;-56
2022/12/19 05:45:33;;;;;;;65.70;34.08;;;;;;;-0.12;85.73;99761.44;9401767;28;10000807;-56
2022/12/19 05:50:32;;;;;;;69.55;34.63;;;;;;;-0.06;85.43;99769.53;10279238;28;20022;-56
2022/12/19 05:55:31;;;;;;;74.15;38.53;;;;;;;-0.01;85.30;99763.09;10277150;28;20100;-56
2022/12/19 06:00:30;;;;;;;64.30;32.55;;;;;;;0.05;84.89;99763.56;10283241;28;20026;-56
2022/12/19 06:05:30;;;;;;;68.60;33.42;;;;;;;0.07;84.93;99771.31;10269259;28;20053;-56
2022/12/19 06:10:28;;;;;;;;;;;;;;;0.05;85.35;99771.22;10275569;28;20133;-56
2022/12/19 06:15:27;;;;;;;65.68;31.58;;;;;;;0.04;86.08;99766.88;10283347;28;20000;-56
2022/12/19 06:20:27;;;;;;;94.57;46.55;;;;;;;-0.12;85.91;99747.78;10282698;28;20045;-56
2022/12/19 06:25:26;;;;;;;83.97;38.25;;;;;;;-0.07;85.75;99788.16;10281749;28;20398;-56
2022/12/19 06:30:25;;;;;;;74.38;37.40;;;;;;;-0.23;86.29;99787.81;10281017;28;20083;-56
2022/12/19 06:35:24;;;;;;;63.72;33.45;;;;;;;-0.43;86.64;99779.56;10280918;28;20056;-56
2022/12/19 06:45:40;;;;;;;58.35;29.70;;;;;;;-0.50;86.84;99805.38;10281425;28;20137;-56
2022/12/19 06:50:39;;;;;;;69.88;34.65;;;;;;;-0.49;86.98;99796.06;10282877;28;20026;-56
2022/12/19 06:55:38;;;;;;;63.80;33.97;;;;;;;-0.46;87.40;99807.41;10286660;28;20057;-56
2022/12/19 07:00:37;;;;;;;63.53;30.63;;;;;;;-0.42;87.67;99809.38;10277039;28;20399;-56
2022/12/19 07:05:37;;;;;;;57.35;29.85;;;;;;;-0.67;87.45;99758.22;10286578;28;20057;-56
2022/12/19 07:10:36;;;;;;;65.40;32.50;;;;;;;-0.31;86.99;99816.97;10288150;28;20566;-56
2022/12/19 07:15:36;;;;;;;68.20;35.00;;;;;;;-0.20;87.20;99826.31;10287200;28;20121;-56
2022/12/19 07:20:38;;;;;;;69.60;35.22;;;;;;;-0.08;87.03;99832.34;10289819;28;20121;-56
2022/12/19 07:25:38;;;;;;;70.22;36.97;;;;;;;-0.03;86.51;99835.22;10289512;28;20120;-56
2022/12/19 07:30:37;;;;;;;77.55;41.22;;;;;;;0.05;86.61;99835.03;10288772;28;20149;-56
2022/12/19 07:35:36;;;;;;;90.25;45.58;;;;;;;0.19;86.33;99848.78;10278940;28;20045;-56
2022/12/19 07:40:35;;;;;;;80.18;42.35;;;;;;;0.23;85.98;99844.81;10286683;28;20029;-56
2022/12/19 07:45:36;;;;;;;;;;;;;;;0.28;85.37;99863.91;10288892;28;20126;-55
2022/12/19 07:50:35;;;;;;;77.85;39.45;;;;;;;0.25;84.71;99864.56;10288380;28;20004;-56
2022/12/19 07:55:34;;;;;;;70.63;38.35;;;;;;;0.45;84.96;99866.03;10287965;28;20124;-56
2022/12/19 08:00:33;;;;;;;64.25;34.28;;;;;;;0.73;83.94;99875.66;10287990;28;20044;-56
2022/12/19 08:05:33;;;;;;;68.97;35.65;;;;;;;0.84;82.08;99885.00;10280871;28;20039;-55
2022/12/19 08:10:32;;;;;;;81.35;41.45;;;;;;;0.72;82.06;99894.34;10287674;28;20152;-56
2022/12/19 08:15:31;;;;;;;81.28;40.83;;;;;;;0.63;82.42;99896.25;10284800;28;20475;-56
2022/12/19 08:20:30;;;;;;;61.92;31.77;;;;;;;0.63;82.29;99898.78;10286832;28;20392;-55
2022/12/19 08:25:29;;;;;;;59.28;31.10;;;;;;;0.75;81.66;99898.78;10287022;28;20040;-55
2022/12/19 08:30:28;;;;;;;56.83;31.90;;;;;;;0.85;81.13;99891.91;10285404;28;20045;-55
2022/12/19 08:35:26;;;;;;;66.97;34.60;;;;;;;1.08;80.18;99895.19;10286180;28;20033;-55
2022/12/19 08:40:25;;;;;;;52.58;26.75;;;;;;;1.28;78.12;99889.81;10285656;28;20462;-55
2022/12/19 08:45:24;;;;;;;44.50;23.45;;;;;;;1.40;75.95;99888.91;10286186;28;20411;-55
2022/12/19 08:50:24;;;;;;;54.58;29.05;;;;;;;1.54;75.75;99888.19;10285461;28;20096;-55
2022/12/19 08:55:24;;;;;;;57.90;31.30;;;;;;;1.77;75.62;99886.31;10282900;28;20178;-55
2022/12/19 09:00:23;;;;;;;64.15;35.78;;;;;;;2.01;75.38;99882.84;10272104;28;20121;-55
2022/12/19 09:05:22;;;;;;;;;;;;;;;2.21;75.34;99875.59;10268245;28;20117;-55
2022/12/19 09:10:21;;;;;;;65.95;37.67;;;;;;;2.35;74.98;99867.16;10274254;28;19925;-55
2022/12/19 09:15:20;;;;;;;63.90;36.50;;;;;;;2.51;75.37;99857.13;10283574;28;20094;-55
2022/12/19 09:20:20;;;;;;;72.03;41.85;;;;;;;2.56;73.23;99850.59;10283389;28;20033;-55
2022/12/19 09:25:19;;;;;;;57.53;33.88;;;;;;;2.55;71.13;99833.44;10282065;28;20207;-55
2022/12/19 09:30:18;;;;;;;87.43;52.42;;;;;;;2.52;69.45;99817.88;10279633;28;20481;-55
2022/12/19 09:35:17;;;;;;;64.50;38.22;;;;;;;2.56;69.79;99814.72;10268110;28;20494;-58
2022/12/19 09:40:16;;;;;;;57.80;32.17;;;;;;;2.70;69.43;99817.25;10270463;28;20600;-55
2022/12/19 09:45:30;;;;;;;;;;;;;;;2.44;67.30;99797.66;10267552;28;20129;-55
2022/12/19 09:50:42;;;;;;;57.63;29.27;;;;;;;2.40;67.16;99799.16;10280881;28;20009;-55
2022/12/19 09:55:42;;;;;;;40.65;23.35;;;;;;;1.96;66.29;99784.34;10280336;28;20125;-55
2022/12/19 10:00:47;;;;;;;51.85;29.95;;;;;;;2.09;66.92;99783.47;10279104;28;20226;-55
2022/12/19 10:06:02;;;;;;;44.60;21.33;;;;;;;2.08;66.63;99781.72;10294771;28;20120;-55
2022/12/19 10:11:04;;;;;;;52.97;31.73;;;;;;;1.82;67.15;99774.88;10281052;28;20126;-55
2022/12/19 10:16:08;;;;;;;38.78;20.83;;;;;;;1.79;68.14;99764.44;10271176;28;20588;-55
2022/12/19 10:21:18;;;;;;;35.63;17.90;;;;;;;1.70;68.07;99770.72;10274679;28;20116;-55
2022/12/19 10:26:29;;;;;;;46.78;25.77;;;;;;;1.95;68.62;99769.78;10281072;28;20128;-55
2022/12/19 10:31:39;;;;;;;37.60;20.60;;;;;;;2.13;68.02;99763.28;10280869;28;20149;-55
2022/12/19 10:36:44;;;;;;;53.40;24.13;;;;;;;2.25;66.89;99749.50;10277805;28;20124;-55
2022/12/19 10:41:44;;;;;;;35.08;19.02;;;;;;;2.36;65.40;99748.50;10279619;28;20141;-55
2022/12/19 10:46:50;;;;;;;101.53;54.25;;;;;;;2.36;66.03;99743.38;10280913;28;20566;-55
2022/12/19 10:51:57;;;;;;;34.80;18.45;;;;;;;2.50;64.39;99740.00;10272838;28;20109;-55
2022/12/19 10:57:16;;;;;;;41.25;22.38;;;;;;;2.63;64.15;99738.19;10276826;28;20153;-55
2022/12/19 11:02:31;;;;;;;31.97;18.87;;;;;;;2.53;64.51;99737.63;10268900;28;20112;-55
2022/12/19 11:07:30;;;;;;;30.98;17.20;;;;;;;2.35;63.48;99736.50;10279176;28;20101;-55
2022/12/19 11:12:31;;;;;;;34.38;17.70;;;;;;;2.33;63.63;99732.94;10263303;28;20104;-55
2022/12/19 11:17:33;;;;;;;74.55;49.10;;;;;;;2.25;64.32;99729.88;10257074;28;20117;-56
2022/12/19 11:22:35;;;;;;;96.50;58.05;;;;;;;2.32;65.39;99720.91;10274989;28;20117;-55
2022/12/19 11:27:40;;;;;;;37.65;21.92;;;;;;;2.61;65.57;99727.00;10278636;28;20117;-56
2022/12/19 11:32:41;;;;;;;70.00;38.97;;;;;;;2.81;64.28;99735.09;10279753;28;20116;-55
2022/12/19 11:37:47;;;;;;;41.38;23.17;;;;;;;2.84;64.09;99739.56;10278349;28;20117;-56
2022/12/19 11:42:49;;;;;;;33.03;18.27;;;;;;;2.99;64.05;99735.34;10285852;28;20128;-56
2022/12/19 11:48:02;;;;;;;106.18;40.67;;;;;;;2.96;62.67;99736.84;10288259;28;20121;-56
2022/12/19 11:53:14;;;;;;;53.92;25.80;;;;;;;2.87;63.32;99714.09;10287963;28;20196;-56
2022/12/19 11:58:13;;;;;;;1213.70;514.33;;;;;;;2.98;63.77;99715.63;10285094;28;20125;-56
2022/12/19 12:03:56;;;;;;;83.15;47.33;;;;;;;3.23;64.47;99722.22;10286845;28;20470;-56
2022/12/19 12:09:13;;;;;;;44.70;24.45;;;;;;;3.35;63.95;99730.63;10286590;28;20570;-56
2022/12/19 12:14:14;;;;;;;43.55;23.10;;;;;;;3.35;63.69;99734.88;10286614;28;20745;-56
2022/12/19 12:19:21;;;;;;;61.95;30.08;;;;;;;3.32;63.24;99742.41;10279211;28;20156;-56
2022/12/19 12:24:32;;;;;;;77.50;40.88;;;;;;;3.36;64.62;99742.69;10278551;28;20325;-56
2022/12/19 12:29:57;;;;;;;42.65;26.48;;;;;;;3.33;62.86;99750.22;10286159;28;20161;-58
2022/12/19 12:35:14;;;;;;;43.15;26.88;;;;;;;3.02;63.18;99761.16;10273830;28;20130;-56
2022/12/19 12:40:36;;;;;;;325.02;167.52;;;;;;;2.87;64.06;99760.25;10284788;28;20113;-55
2022/12/19 12:45:38;;;;;;;46.10;24.75;;;;;;;2.95;64.35;99751.31;10283859;28;20485;-56
2022/12/19 12:50:40;;;;;;;44.13;23.58;;;;;;;3.05;64.59;99749.31;10266489;28;20176;-56
2022/12/19 12:55:41;;;;;;;32.97;18.02;;;;;;;3.13;65.65;99735.31;10282370;28;20108;-56
2022/12/19 13:01:19;;;;;;;33.83;18.05;;;;;;;3.17;64.87;99744.97;10283846;28;20129;-56
2022/12/19 13:06:25;;;;;;;39.10;20.50;;;;;;;3.13;64.25;99741.31;10285001;28;20117;-56
2022/12/19 13:16:42;;;;;;;37.17;20.40;;;;;;;2.79;64.96;99741.84;10282969;28;20077;-56
2022/12/19 13:22:02;;;;;;;41.75;21.88;;;;;;;2.83;64.73;99753.16;10279120;28;20049;-53
2022/12/19 13:27:01;;;;;;;43.38;23.85;;;;;;;2.86;64.92;99748.19;10282209;28;20113;-53
2022/12/19 13:32:31;;;;;;;41.08;23.65;;;;;;;2.83;64.80;99742.88;10279638;28;20050;-56
2022/12/19 13:37:39;;;;;;;45.83;27.73;;;;;;;2.79;65.36;99746.06;10267012;28;20120;-56
2022/12/19 13:48:21;;;;;;;88.32;45.38;;;;;;;2.43;66.17;99762.59;10282674;28;20116;-56
2022/12/19 13:53:26;;;;;;;48.00;27.10;;;;;;;2.37;66.50;99776.78;10266801;28;20053;-53
2022/12/19 13:58:53;;;;;;;43.92;26.60;;;;;;;2.44;67.29;99777.16;10276099;28;20140;-55
2022/12/19 14:03:55;;;;;;;39.65;22.17;;;;;;;2.48;68.05;99759.53;10254676;28;20460;-54
2022/12/19 14:09:03;;;;;;;47.42;24.17;;;;;;;2.58;68.21;99769.59;10276650;28;20129;-53
2022/12/19 14:19:28;;;;;;;70.53;38.58;;;;;;;2.42;68.40;99782.22;10274297;28;20034;-53
2022/12/19 14:24:27;;;;;;;38.10;19.88;;;;;;;2.41;68.33;99782.97;10262968;28;20108;-54
2022/12/19 14:29:35;;;;;;;36.80;19.13;;;;;;;2.42;68.16;99764.28;10266769;28;20034;-54
2022/12/19 14:34:35;;;;;;;43.80;21.88;;;;;;;2.37;68.73;99771.66;10275598;28;20125;-53
2022/12/19 14:39:35;;;;;;;;;;;;;;;2.36;68.84;99753.63;10270165;28;20133;-53
2022/12/19 14:44:45;;;;;;;50.70;28.85;;;;;;;2.42;69.71;99758.25;10275611;28;19999;-54
2022/12/19 14:49:43;;;;;;;48.72;24.20;;;;;;;2.47;69.65;99757.75;10271155;28;20117;-54
2022/12/19 14:54:42;;;;;;;46.60;25.50;;;;;;;2.32;69.84;99755.09;10267978;28;20022;-55
2022/12/19 14:59:44;;;;;;;44.88;23.73;;;;;;;2.04;71.36;99716.59;10261351;28;20030;-55
2022/12/19 15:05:01;;;;;;;40.75;21.33;;;;;;;1.89;73.54;99756.56;10283173;28;20149;-55
2022/12/19 15:10:06;;;;;;;64.65;33.22;;;;;;;1.66;74.89;99748.25;10264795;28;20145;-54
2022/12/19 15:15:23;;;;;;;89.40;45.88;;;;;;;1.72;75.75;99750.34;10270134;28;20116;-54
2022/12/19 15:20:22;;;;;;;98.35;51.38;;;;;;;1.73;76.15;99764.91;10275887;28;20037;-54
2022/12/19 15:25:21;;;;;;;85.30;45.22;;;;;;;1.73;76.70;99752.13;10269961;28;20037;-55
2022/12/19 15:30:21;;;;;;;58.35;29.20;;;;;;;1.80;76.85;99753.41;10274024;28;20045;-54
2022/12/19 15:35:20;;;;;;;57.03;31.27;;;;;;;1.85;76.51;99755.47;10284833;28;20136;-54
2022/12/19 15:40:19;;;;;;;52.88;29.20;;;;;;;1.81;77.10;99757.72;10281758;28;20037;-54
2022/12/19 15:45:18;;;;;;;49.30;26.70;;;;;;;1.68;78.49;99756.06;10271166;28;20033;-54
2022/12/19 15:50:23;;;;;;;53.67;29.88;;;;;;;1.67;78.66;99759.38;10273622;28;20109;-54
2022/12/19 15:55:25;;;;;;;57.13;31.60;;;;;;;1.68;78.73;99758.59;10276161;28;20155;-54
2022/12/19 16:00:27;;;;;;;53.38;29.40;;;;;;;1.70;79.19;99765.59;10269362;28;20113;-54
2022/12/19 16:05:28;;;;;;;53.83;30.13;;;;;;;1.70;79.31;99757.03;10281900;28;20117;-54
2022/12/19 16:10:27;;;;;;;48.75;26.50;;;;;;;1.78;78.99;99750.75;10277721;28;20547;-54
2022/12/19 16:15:29;;;;;;;46.30;24.60;;;;;;;1.86;78.74;99751.28;10276166;28;20579;-54
2022/12/19 16:20:38;;;;;;;52.58;26.10;;;;;;;1.96;78.59;99761.31;10284329;28;20062;-54
2022/12/19 16:25:40;;;;;;;44.08;23.00;;;;;;;1.92;78.76;99760.22;10278058;28;20064;-54
2022/12/19 16:30:42;;;;;;;46.40;22.25;;;;;;;1.80;79.31;99755.97;10268540;28;20065;-54
2022/12/19 16:35:41;;;;;;;83.78;42.28;;;;;;;1.69;79.96;99761.28;10280579;28;20069;-54
2022/12/19 16:40:40;;;;;;;42.85;23.42;;;;;;;1.84;79.38;99768.19;10275871;28;20113;-54
2022/12/19 16:45:39;;;;;;;53.00;28.10;;;;;;;1.80;79.56;99758.53;10274337;28;20081;-54
2022/12/19 16:50:38;;;;;;;84.22;44.25;;;;;;;1.90;80.07;99760.91;10273016;28;20081;-54
2022/12/19 16:55:37;;;;;;;61.45;30.90;;;;;;;1.88;80.96;99762.47;10268966;28;20033;-54
2022/12/19 17:00:36;;;;;;;61.78;29.90;;;;;;;1.75;81.37;99771.91;10271018;28;20065;-55
2022/12/19 17:05:36;;;;;;;65.80;28.13;;;;;;;1.70;81.19;99773.28;10270342;28;20045;-55
2022/12/19 17:10:35;;;;;;;59.95;30.05;;;;;;;1.70;82.00;99780.97;10262494;28;20129;-54
2022/12/19 17:15:37;;;;;;;50.33;25.38;;;;;;;1.75;82.40;99771.91;10271509;28;20045;-57
2022/12/19 17:20:40;;;;;;;70.35;37.67;;;;;;;1.74;82.45;99775.25;10276346;28;20118;-54
2022/12/19 17:25:39;;;;;;;46.58;22.33;;;;;;;1.64;83.26;99777.09;10287225;28;20069;-55
2022/12/19 17:30:40;;;;;;;61.70;32.53;;;;;;;1.19;83.63;99748.53;10288021;28;20022;-54
2022/12/19 17:35:40;;;;;;;61.53;33.58;;;;;;;1.23;84.61;99776.09;10284183;28;20743;-54
2022/12/19 17:40:40;;;;;;;61.05;31.02;;;;;;;1.16;84.74;99776.44;10282224;28;20081;-54
2022/12/19 17:45:39;;;;;;;46.80;23.48;;;;;;;1.14;84.29;99790.78;10286503;28;20072;-54
2022/12/19 17:50:40;;;;;;;47.13;21.80;;;;;;;1.02;83.98;99785.72;10288068;28;20049;-54
2022/12/19 17:55:39;;;;;;;44.42;21.52;;;;;;;1.04;83.78;99780.72;10274301;28;20070;-54
2022/12/19 18:00:39;;;;;;;42.22;21.33;;;;;;;1.01;83.84;99780.50;10259518;28;20149;-54
2022/12/19 18:05:38;;;;;;;43.63;22.98;;;;;;;1.04;83.46;99780.72;10274931;28;20133;-54
2022/12/19 18:10:37;;;;;;;62.80;32.58;;;;;;;1.06;83.01;99776.59;10279345;28;20153;-54
2022/12/19 18:15:36;;;;;;;46.22;24.70;;;;;;;1.03;83.18;99779.81;10274816;28;20033;-54
2022/12/19 18:20:35;;;;;;;47.08;23.45;;;;;;;1.06;83.08;99786.81;10279909;28;20812;-54
2022/12/19 18:25:34;;;;;;;37.80;20.92;;;;;;;1.10;82.33;99788.81;10278845;28;20454;-54
2022/12/19 18:30:34;;;;;;;42.97;21.48;;;;;;;1.06;82.46;99786.81;10279782;28;20153;-54
2022/12/19 18:35:39;;;;;;;46.63;23.20;;;;;;;0.98;82.02;99780.28;10277525;28;20129;-54
2022/12/19 18:40:38;;;;;;;36.22;18.23;;;;;;;0.83;82.10;99781.00;10280473;28;20116;-54
2022/12/19 18:45:40;;;;;;;36.15;18.63;;;;;;;0.68;81.88;99785.91;10281484;28;20037;-54
2022/12/19 18:50:39;;;;;;;29.83;15.95;;;;;;;0.77;81.38;99785.69;10284111;28;20974;-54
2022/12/19 18:55:39;;;;;;;42.70;23.52;;;;;;;0.73;81.12;99778.56;10285026;28;20136;-54
2022/12/19 19:00:38;;;;;;;33.75;19.42;;;;;;;0.70;80.66;99788.59;10283536;28;20555;-54
2022/12/19 19:05:38;;;;;;;42.38;21.30;;;;;;;0.69;80.91;99787.69;10284664;28;20125;-54
2022/12/19 19:10:38;;;;;;;54.83;26.00;;;;;;;0.67;81.06;99798.59;10288379;28;20141;-54
2022/12/19 19:15:44;;;;;;;176.10;81.63;;;;;;;0.66;80.78;99800.28;10288246;28;20132;-54
2022/12/19 19:20:44;;;;;;;50.38;27.35;;;;;;;0.52;80.71;99777.94;10289513;28;20121;-54
2022/12/19 19:25:43;;;;;;;29.02;13.25;;;;;;;0.62;80.22;99802.50;10287409;28;20165;-54
2022/12/19 19:30:42;;;;;;;52.42;23.70;;;;;;;0.59;80.39;99802.25;10287785;28;20021;-55
2022/12/19 19:35:43;;;;;;;;;;;;;;;0.59;80.96;99815.03;10283284;28;20142;-54
2022/12/19 19:40:42;;;;;;;;;;;;;;;0.67;80.86;99813.94;10287025;28;20028;-54
2022/12/19 19:45:41;;;;;;;56.95;28.50;;;;;;;0.59;80.96;99826.16;10288349;28;20463;-54
2022/12/19 19:50:41;;;;;;;58.95;30.17;;;;;;;0.56;81.21;99817.38;10283397;28;20125;-54
2022/12/19 19:55:39;;;;;;;47.67;23.70;;;;;;;0.46;81.61;99819.28;10283843;28;20120;-55
2022/12/19 20:00:41;;;;;;;51.80;27.48;;;;;;;0.53;81.29;99815.50;10287342;28;20124;-54
2022/12/19 20:05:40;;;;;;;47.13;24.90;;;;;;;0.58;81.09;99813.28;10281096;28;20140;-54
2022/12/19 20:10:39;;;;;;;55.28;27.05;;;;;;;0.51;81.08;99821.28;10270908;28;20038;-54
2022/12/19 20:15:38;;;;;;;43.00;21.75;;;;;;;0.34;81.34;99823.50;10286853;28;20124;-54
2022/12/19 20:20:37;;;;;;;33.67;17.45;;;;;;;0.14;81.75;99814.38;10286052;28;20040;-54
2022/12/19 20:25:38;;;;;;;33.95;16.75;;;;;;;-0.03;81.83;99791.84;10270677;28;20372;-54
2022/12/19 20:30:37;;;;;;;45.38;21.40;;;;;;;-0.02;81.52;99806.38;10273298;28;20149;-54
2022/12/19 20:35:36;;;;;;;38.33;19.10;;;;;;;-0.04;81.94;99807.91;10271966;28;20135;-54
2022/12/19 20:40:35;;;;;;;51.47;26.42;;;;;;;-0.14;82.18;99815.69;10281259;28;20123;-55
2022/12/19 20:45:34;;;;;;;52.85;26.13;;;;;;;-0.22;82.19;99805.78;10278895;28;20458;-54
2022/12/19 20:50:33;;;;;;;47.53;22.58;;;;;;;-0.25;81.80;99807.22;10281931;28;20137;-54
2022/12/19 20:55:32;;;;;;;40.40;20.30;;;;;;;-0.37;82.34;99808.09;10279586;28;20040;-55
2022/12/19 21:00:31;;;;;;;55.33;27.80;;;;;;;-0.43;82.35;99801.66;10273082;28;20040;-54
2022/12/19 21:05:30;;;;;;;50.65;24.60;;;;;;;-0.58;82.62;99796.25;10273689;28;20040;-54
2022/12/19 21:10:29;;;;;;;51.63;23.20;;;;;;;-0.63;82.72;99795.91;10265487;28;20045;-54
2022/12/19 21:15:29;;;;;;;48.40;22.42;;;;;;;-0.67;82.77;99796.47;10278899;28;20602;-54
2022/12/19 21:20:28;;;;;;;67.45;34.38;;;;;;;-0.71;82.68;99798.66;10276835;28;20157;-54
2022/12/19 21:25:27;;;;;;;486.52;185.68;;;;;;;-0.73;82.64;99800.22;10282139;28;20148;-54
2022/12/19 21:30:26;;;;;;;144.40;59.72;;;;;;;-0.76;83.50;99805.09;10276261;28;20049;-54
2022/12/19 21:35:25;;;;;;;263.63;101.03;;;;;;;-0.84;83.43;99795.19;10265225;28;20092;-54
2022/12/19 21:40:24;;;;;;;39.00;20.58;;;;;;;-0.98;84.11;99788.13;10282613;28;20033;-54
2022/12/19 21:45:23;;;;;;;37.15;17.35;;;;;;;-0.93;84.04;99806.31;10281382;28;20048;-54
2022/12/19 21:50:22;;;;;;;35.20;16.38;;;;;;;-0.85;84.33;99801.03;10282236;28;20108;-54
2022/12/19 21:55:21;;;;;;;91.90;45.42;;;;;;;-0.91;84.50;99785.25;10283371;28;20025;-54
2022/12/19 22:00:20;;;;;;;98.10;51.92;;;;;;;-0.78;84.02;99796.44;10272302;28;20113;-54
2022/12/19 22:05:19;;;;;;;104.82;46.67;;;;;;;-0.76;84.31;99785.56;10271496;28;20113;-54
2022/12/19 22:10:18;;;;;;;49.67;21.55;;;;;;;-0.70;83.91;99786.00;10281401;28;20034;-54
2022/12/19 22:15:17;;;;;;;41.75;18.52;;;;;;;-0.77;84.38;99782.88;10277901;28;20145;-54
2022/12/19 22:20:16;;;;;;;39.72;16.60;;;;;;;-1.12;85.21;99779.41;10283176;28;20104;-54
2022/12/19 22:25:16;;;;;;;34.55;15.52;;;;;;;-1.16;85.79;99784.19;10283125;28;20045;-54
2022/12/19 22:30:15;;;;;;;43.70;18.50;;;;;;;-1.28;85.38;99777.34;10283187;28;20129;-54
2022/12/19 22:35:14;;;;;;;40.35;18.10;;;;;;;-1.55;86.48;99745.50;10282703;28;20120;-54
2022/12/19 22:40:13;;;;;;;42.42;20.92;;;;;;;-1.30;85.83;99778.88;10282260;28;20042;-54
2022/12/19 22:45:12;;;;;;;35.17;15.38;;;;;;;-1.43;86.58;99773.59;10274214;28;20104;-54
2022/12/19 22:50:11;;;;;;;31.40;14.02;;;;;;;-1.45;86.72;99772.56;10277805;28;20038;-54
2022/12/19 22:55:10;;;;;;;38.95;20.02;;;;;;;-1.52;86.12;99766.09;10267680;28;20053;-55
2022/12/19 23:00:11;;;;;;;38.47;17.25;;;;;;;-1.39;86.49;99772.19;10277459;28;20042;-54
2022/12/19 23:05:10;;;;;;;36.42;16.58;;;;;;;-1.38;85.72;99773.94;10276309;28;20120;-54
2022/12/19 23:10:09;;;;;;;57.55;26.98;;;;;;;-1.38;86.14;99763.75;10279620;28;20070;-54
2022/12/19 23:15:08;;;;;;;;;;;;;;;-1.38;86.12;99758.66;10274360;28;20459;-54
2022/12/19 23:20:08;;;;;;;55.53;25.45;;;;;;;-1.32;85.42;99754.94;10277885;28;20375;-54
2022/12/19 23:25:07;;;;;;;;;;;;;;;-1.30;85.96;99763.59;10281760;28;20125;-54
2022/12/19 23:30:06;;;;;;;45.37;21.47;;;;;;;-1.36;85.95;99752.94;10279847;28;20012;-54
2022/12/19 23:35:06;;;;;;;47.10;22.40;;;;;;;-1.46;86.75;99761.50;10283473;28;20117;-54